Raalte, Netherlands
Current Conditions -  °F | °C
As of 5:25 AM on Wednesday 28 Jan 2015 (Local Time) from EHDL Reporting Station
Haze Haze  
Wind Chill: 32°   Ceiling: 600
Heat Index: 39°   Visibility: 3mi
Dew Point: 37°   Wind: 13mph
Humidity: 93%   Direction: 210°SSW
Pressure: 29.94"   Gusts: NA
Location:  52.39°N, 6.28°E
Report Text: EHDL 280425Z AUTO 21011KT 5000 BR SCT005 BKN006 OVC008 04/03 Q1014 YLO
Loading
Personal Weather Stations






























Interactive Weather Map New forecast layout! Learn more

10-Day Weather Forecast

Advertisements
Track Severe Weather on mobile